sensor_id;sensor_type;location;lat;lon;timestamp;P1;durP1;ratioP1;P2;durP2;ratioP2
14094;SDS011;18096;48.142;16.290;2023-02-01T00:01:32;1.37;;;1.27;;
14094;SDS011;18096;48.142;16.290;2023-02-01T00:03:58;1.20;;;0.90;;
14094;SDS011;18096;48.142;16.290;2023-02-01T00:06:23;1.52;;;1.35;;
14094;SDS011;18096;48.142;16.290;2023-02-01T00:08:52;0.90;;;0.70;;
14094;SDS011;18096;48.142;16.290;2023-02-01T00:11:19;5.50;;;1.40;;
14094;SDS011;18096;48.142;16.290;2023-02-01T00:13:45;3.70;;;1.25;;
14094;SDS011;18096;48.142;16.290;2023-02-01T00:18:37;1.00;;;1.00;;
14094;SDS011;18096;48.142;16.290;2023-02-01T00:21:03;3.20;;;0.80;;
14094;SDS011;18096;48.142;16.290;2023-02-01T00:23:33;1.33;;;1.30;;
14094;SDS011;18096;48.142;16.290;2023-02-01T00:26:01;1.10;;;1.10;;
14094;SDS011;18096;48.142;16.290;2023-02-01T00:28:31;1.10;;;0.90;;
14094;SDS011;18096;48.142;16.290;2023-02-01T00:30:58;0.90;;;0.90;;
14094;SDS011;18096;48.142;16.290;2023-02-01T00:33:27;1.08;;;0.98;;
14094;SDS011;18096;48.142;16.290;2023-02-01T00:36:04;1.80;;;1.27;;
14094;SDS011;18096;48.142;16.290;2023-02-01T00:38:32;1.40;;;1.30;;
14094;SDS011;18096;48.142;16.290;2023-02-01T00:41:02;1.60;;;1.50;;
14094;SDS011;18096;48.142;16.290;2023-02-01T00:43:30;1.70;;;1.20;;
14094;SDS011;18096;48.142;16.290;2023-02-01T00:45:57;1.48;;;1.40;;
14094;SDS011;18096;48.142;16.290;2023-02-01T00:48:23;2.40;;;1.35;;
14094;SDS011;18096;48.142;16.290;2023-02-01T00:50:49;1.40;;;1.30;;
14094;SDS011;18096;48.142;16.290;2023-02-01T00:53:15;1.43;;;1.33;;
14094;SDS011;18096;48.142;16.290;2023-02-01T00:55:40;1.50;;;1.40;;
14094;SDS011;18096;48.142;16.290;2023-02-01T00:58:10;2.20;;;1.50;;
14094;SDS011;18096;48.142;16.290;2023-02-01T01:00:36;1.45;;;1.45;;
14094;SDS011;18096;48.142;16.290;2023-02-01T01:03:02;1.40;;;1.40;;
14094;SDS011;18096;48.142;16.290;2023-02-01T01:05:42;1.98;;;1.55;;
14094;SDS011;18096;48.142;16.290;2023-02-01T01:08:12;2.00;;;1.80;;
14094;SDS011;18096;48.142;16.290;2023-02-01T01:10:38;1.42;;;1.42;;
14094;SDS011;18096;48.142;16.290;2023-02-01T01:13:04;1.70;;;1.50;;
14094;SDS011;18096;48.142;16.290;2023-02-01T01:15:30;1.80;;;1.70;;
14094;SDS011;18096;48.142;16.290;2023-02-01T01:17:56;4.82;;;1.45;;
14094;SDS011;18096;48.142;16.290;2023-02-01T01:20:21;1.60;;;1.50;;
14094;SDS011;18096;48.142;16.290;2023-02-01T01:22:47;1.50;;;1.40;;
14094;SDS011;18096;48.142;16.290;2023-02-01T01:25:13;2.70;;;0.90;;
14094;SDS011;18096;48.142;16.290;2023-02-01T01:27:39;1.10;;;1.10;;
14094;SDS011;18096;48.142;16.290;2023-02-01T01:30:05;1.30;;;1.20;;
14094;SDS011;18096;48.142;16.290;2023-02-01T01:32:31;1.33;;;1.23;;
14094;SDS011;18096;48.142;16.290;2023-02-01T01:34:57;1.40;;;1.10;;
14094;SDS011;18096;48.142;16.290;2023-02-01T01:37:22;1.10;;;1.10;;
14094;SDS011;18096;48.142;16.290;2023-02-01T01:39:48;1.00;;;1.00;;
14094;SDS011;18096;48.142;16.290;2023-02-01T01:42:14;1.17;;;1.08;;
14094;SDS011;18096;48.142;16.290;2023-02-01T01:47:30;1.80;;;1.70;;
14094;SDS011;18096;48.142;16.290;2023-02-01T01:50:01;1.20;;;1.10;;
14094;SDS011;18096;48.142;16.290;2023-02-01T01:52:29;1.48;;;1.38;;
14094;SDS011;18096;48.142;16.290;2023-02-01T01:54:55;2.00;;;1.90;;
14094;SDS011;18096;48.142;16.290;2023-02-01T01:57:24;1.50;;;1.40;;
14094;SDS011;18096;48.142;16.290;2023-02-01T01:59:59;1.60;;;1.50;;
14094;SDS011;18096;48.142;16.290;2023-02-01T02:02:41;1.50;;;1.40;;
14094;SDS011;18096;48.142;16.290;2023-02-01T02:05:09;1.75;;;1.20;;
14094;SDS011;18096;48.142;16.290;2023-02-01T02:07:37;1.92;;;1.45;;
14094;SDS011;18096;48.142;16.290;2023-02-01T02:10:08;0.83;;;0.83;;
14094;SDS011;18096;48.142;16.290;2023-02-01T02:12:37;1.63;;;1.13;;
14094;SDS011;18096;48.142;16.290;2023-02-01T02:15:05;1.50;;;1.40;;
14094;SDS011;18096;48.142;16.290;2023-02-01T02:31:40;1.10;;;1.10;;
14094;SDS011;18096;48.142;16.290;2023-02-01T02:37:18;1.30;;;1.30;;
14094;SDS011;18096;48.142;16.290;2023-02-01T02:45:49;1.50;;;1.40;;
14094;SDS011;18096;48.142;16.290;2023-02-01T02:48:42;1.00;;;1.00;;
14094;SDS011;18096;48.142;16.290;2023-02-01T02:51:18;1.30;;;1.10;;
14094;SDS011;18096;48.142;16.290;2023-02-01T02:54:18;1.05;;;1.05;;
14094;SDS011;18096;48.142;16.290;2023-02-01T02:57:10;1.40;;;1.00;;
14094;SDS011;18096;48.142;16.290;2023-02-01T02:59:58;1.10;;;1.00;;
14094;SDS011;18096;48.142;16.290;2023-02-01T03:02:46;0.90;;;0.88;;
14094;SDS011;18096;48.142;16.290;2023-02-01T03:05:33;1.45;;;1.25;;
14094;SDS011;18096;48.142;16.290;2023-02-01T03:11:00;1.35;;;1.30;;
14094;SDS011;18096;48.142;16.290;2023-02-01T03:16:20;1.20;;;1.20;;
14094;SDS011;18096;48.142;16.290;2023-02-01T03:21:41;1.50;;;1.40;;
14094;SDS011;18096;48.142;16.290;2023-02-01T03:24:18;1.35;;;1.25;;
14094;SDS011;18096;48.142;16.290;2023-02-01T03:26:51;1.63;;;1.20;;
14094;SDS011;18096;48.142;16.290;2023-02-01T03:30:03;1.90;;;1.48;;
14094;SDS011;18096;48.142;16.290;2023-02-01T03:32:15;2.20;;;1.40;;
14094;SDS011;18096;48.142;16.290;2023-02-01T03:34:41;1.50;;;1.40;;
14094;SDS011;18096;48.142;16.290;2023-02-01T03:37:11;2.20;;;1.40;;
14094;SDS011;18096;48.142;16.290;2023-02-01T03:39:56;1.80;;;1.70;;
14094;SDS011;18096;48.142;16.290;2023-02-01T03:42:30;1.80;;;1.60;;
14094;SDS011;18096;48.142;16.290;2023-02-01T03:45:22;1.50;;;1.30;;
14094;SDS011;18096;48.142;16.290;2023-02-01T03:47:55;2.93;;;1.80;;
14094;SDS011;18096;48.142;16.290;2023-02-01T03:50:25;1.58;;;1.50;;
14094;SDS011;18096;48.142;16.290;2023-02-01T03:53:09;2.00;;;1.50;;
14094;SDS011;18096;48.142;16.290;2023-02-01T03:55:39;1.50;;;1.40;;
14094;SDS011;18096;48.142;16.290;2023-02-01T03:58:14;1.83;;;1.73;;
14094;SDS011;18096;48.142;16.290;2023-02-01T04:00:54;2.05;;;1.85;;
14094;SDS011;18096;48.142;16.290;2023-02-01T04:03:24;2.23;;;1.83;;
14094;SDS011;18096;48.142;16.290;2023-02-01T04:05:51;1.42;;;1.40;;
14094;SDS011;18096;48.142;16.290;2023-02-01T04:08:18;1.80;;;1.70;;
14094;SDS011;18096;48.142;16.290;2023-02-01T04:10:47;1.92;;;1.83;;
14094;SDS011;18096;48.142;16.290;2023-02-01T04:13:13;4.05;;;1.90;;
14094;SDS011;18096;48.142;16.290;2023-02-01T04:15:38;1.80;;;1.70;;
14094;SDS011;18096;48.142;16.290;2023-02-01T04:18:04;1.80;;;1.70;;
14094;SDS011;18096;48.142;16.290;2023-02-01T04:20:30;1.80;;;1.70;;
14094;SDS011;18096;48.142;16.290;2023-02-01T04:22:56;4.40;;;1.98;;
14094;SDS011;18096;48.142;16.290;2023-02-01T04:25:22;1.70;;;1.60;;
14094;SDS011;18096;48.142;16.290;2023-02-01T04:27:47;2.37;;;2.20;;
14094;SDS011;18096;48.142;16.290;2023-02-01T04:30:13;2.40;;;2.13;;
14094;SDS011;18096;48.142;16.290;2023-02-01T04:32:39;4.20;;;2.20;;
14094;SDS011;18096;48.142;16.290;2023-02-01T04:35:05;1.90;;;1.80;;
14094;SDS011;18096;48.142;16.290;2023-02-01T04:37:31;3.40;;;1.80;;
14094;SDS011;18096;48.142;16.290;2023-02-01T04:39:57;7.80;;;2.00;;
14094;SDS011;18096;48.142;16.290;2023-02-01T04:42:23;1.88;;;1.60;;
14094;SDS011;18096;48.142;16.290;2023-02-01T04:44:48;1.83;;;1.73;;
14094;SDS011;18096;48.142;16.290;2023-02-01T04:47:14;1.80;;;1.70;;
14094;SDS011;18096;48.142;16.290;2023-02-01T04:49:40;1.70;;;1.60;;
14094;SDS011;18096;48.142;16.290;2023-02-01T04:52:06;2.28;;;2.10;;
14094;SDS011;18096;48.142;16.290;2023-02-01T04:54:32;1.90;;;1.80;;
14094;SDS011;18096;48.142;16.290;2023-02-01T04:56:58;1.70;;;1.60;;
14094;SDS011;18096;48.142;16.290;2023-02-01T04:59:24;1.53;;;1.50;;
14094;SDS011;18096;48.142;16.290;2023-02-01T05:01:50;1.70;;;1.60;;
14094;SDS011;18096;48.142;16.290;2023-02-01T05:04:16;1.43;;;1.33;;
14094;SDS011;18096;48.142;16.290;2023-02-01T05:06:43;1.67;;;1.63;;
14094;SDS011;18096;48.142;16.290;2023-02-01T05:09:09;1.40;;;1.30;;
14094;SDS011;18096;48.142;16.290;2023-02-01T05:11:35;1.42;;;1.42;;
14094;SDS011;18096;48.142;16.290;2023-02-01T05:14:19;1.70;;;1.60;;
14094;SDS011;18096;48.142;16.290;2023-02-01T05:16:44;1.77;;;1.67;;
14094;SDS011;18096;48.142;16.290;2023-02-01T05:19:10;1.75;;;1.65;;
14094;SDS011;18096;48.142;16.290;2023-02-01T05:21:36;3.20;;;2.13;;
14094;SDS011;18096;48.142;16.290;2023-02-01T05:24:01;2.30;;;2.20;;
14094;SDS011;18096;48.142;16.290;2023-02-01T05:26:44;2.30;;;2.20;;
14094;SDS011;18096;48.142;16.290;2023-02-01T05:29:11;5.70;;;2.10;;
14094;SDS011;18096;48.142;16.290;2023-02-01T05:31:37;2.20;;;2.00;;
14094;SDS011;18096;48.142;16.290;2023-02-01T05:34:05;1.70;;;1.70;;
14094;SDS011;18096;48.142;16.290;2023-02-01T05:36:31;1.90;;;1.80;;
14094;SDS011;18096;48.142;16.290;2023-02-01T05:38:57;1.87;;;1.77;;
14094;SDS011;18096;48.142;16.290;2023-02-01T05:41:23;2.70;;;2.03;;
14094;SDS011;18096;48.142;16.290;2023-02-01T05:43:49;2.15;;;1.98;;
14094;SDS011;18096;48.142;16.290;2023-02-01T05:46:15;2.17;;;1.97;;
14094;SDS011;18096;48.142;16.290;2023-02-01T05:48:40;1.60;;;1.50;;
14094;SDS011;18096;48.142;16.290;2023-02-01T05:51:06;5.50;;;1.77;;
14094;SDS011;18096;48.142;16.290;2023-02-01T05:53:34;2.10;;;2.00;;
14094;SDS011;18096;48.142;16.290;2023-02-01T05:55:59;1.90;;;1.80;;
14094;SDS011;18096;48.142;16.290;2023-02-01T05:58:25;2.20;;;1.90;;
14094;SDS011;18096;48.142;16.290;2023-02-01T06:00:51;1.53;;;1.43;;
14094;SDS011;18096;48.142;16.290;2023-02-01T06:03:17;2.20;;;2.10;;
14094;SDS011;18096;48.142;16.290;2023-02-01T06:05:46;1.65;;;1.65;;
14094;SDS011;18096;48.142;16.290;2023-02-01T06:08:12;2.00;;;1.90;;
14094;SDS011;18096;48.142;16.290;2023-02-01T06:10:39;1.92;;;1.83;;
14094;SDS011;18096;48.142;16.290;2023-02-01T06:13:04;1.90;;;1.80;;
14094;SDS011;18096;48.142;16.290;2023-02-01T06:15:30;4.43;;;2.17;;
14094;SDS011;18096;48.142;16.290;2023-02-01T06:17:57;4.28;;;2.10;;
14094;SDS011;18096;48.142;16.290;2023-02-01T06:20:23;1.70;;;1.58;;
14094;SDS011;18096;48.142;16.290;2023-02-01T06:22:49;2.30;;;2.10;;
14094;SDS011;18096;48.142;16.290;2023-02-01T06:25:15;2.20;;;2.10;;
14094;SDS011;18096;48.142;16.290;2023-02-01T06:27:42;2.90;;;2.15;;
14094;SDS011;18096;48.142;16.290;2023-02-01T06:30:09;2.17;;;2.03;;
14094;SDS011;18096;48.142;16.290;2023-02-01T06:32:38;2.30;;;2.10;;
14094;SDS011;18096;48.142;16.290;2023-02-01T06:35:06;1.92;;;1.83;;
14094;SDS011;18096;48.142;16.290;2023-02-01T06:37:33;1.70;;;1.60;;
14094;SDS011;18096;48.142;16.290;2023-02-01T06:40:01;2.00;;;1.90;;
14094;SDS011;18096;48.142;16.290;2023-02-01T06:42:26;2.90;;;1.90;;
14094;SDS011;18096;48.142;16.290;2023-02-01T06:44:52;2.03;;;1.83;;
14094;SDS011;18096;48.142;16.290;2023-02-01T06:47:18;3.28;;;1.95;;
14094;SDS011;18096;48.142;16.290;2023-02-01T06:49:43;2.30;;;2.10;;
14094;SDS011;18096;48.142;16.290;2023-02-01T06:52:09;2.20;;;2.10;;
14094;SDS011;18096;48.142;16.290;2023-02-01T06:54:35;1.80;;;1.40;;
14094;SDS011;18096;48.142;16.290;2023-02-01T06:57:02;4.60;;;2.00;;
14094;SDS011;18096;48.142;16.290;2023-02-01T06:59:28;1.70;;;1.70;;
14094;SDS011;18096;48.142;16.290;2023-02-01T07:01:54;3.37;;;1.60;;
14094;SDS011;18096;48.142;16.290;2023-02-01T07:04:19;2.10;;;2.00;;
14094;SDS011;18096;48.142;16.290;2023-02-01T07:06:45;1.90;;;1.80;;
14094;SDS011;18096;48.142;16.290;2023-02-01T07:09:11;2.53;;;1.70;;
14094;SDS011;18096;48.142;16.290;2023-02-01T07:11:38;1.63;;;1.63;;
14094;SDS011;18096;48.142;16.290;2023-02-01T07:14:08;1.85;;;1.70;;
14094;SDS011;18096;48.142;16.290;2023-02-01T07:16:36;1.60;;;1.50;;
14094;SDS011;18096;48.142;16.290;2023-02-01T07:19:02;3.25;;;1.92;;
14094;SDS011;18096;48.142;16.290;2023-02-01T07:21:28;1.35;;;1.30;;
14094;SDS011;18096;48.142;16.290;2023-02-01T07:23:54;2.10;;;1.80;;
14094;SDS011;18096;48.142;16.290;2023-02-01T07:26:20;2.00;;;1.90;;
14094;SDS011;18096;48.142;16.290;2023-02-01T07:28:46;3.30;;;1.30;;
14094;SDS011;18096;48.142;16.290;2023-02-01T07:31:13;5.10;;;1.70;;
14094;SDS011;18096;48.142;16.290;2023-02-01T07:33:43;1.33;;;1.33;;
14094;SDS011;18096;48.142;16.290;2023-02-01T07:36:10;3.90;;;1.60;;
14094;SDS011;18096;48.142;16.290;2023-02-01T07:38:38;1.80;;;1.60;;
14094;SDS011;18096;48.142;16.290;2023-02-01T07:41:04;1.85;;;1.75;;
14094;SDS011;18096;48.142;16.290;2023-02-01T07:43:31;1.48;;;1.38;;
14094;SDS011;18096;48.142;16.290;2023-02-01T07:45:58;1.48;;;1.48;;
14094;SDS011;18096;48.142;16.290;2023-02-01T07:48:24;1.83;;;1.73;;
14094;SDS011;18096;48.142;16.290;2023-02-01T07:51:01;3.57;;;1.70;;
14094;SDS011;18096;48.142;16.290;2023-02-01T07:53:29;1.50;;;1.50;;
14094;SDS011;18096;48.142;16.290;2023-02-01T07:55:55;2.00;;;1.80;;
14094;SDS011;18096;48.142;16.290;2023-02-01T07:58:22;2.35;;;1.90;;
14094;SDS011;18096;48.142;16.290;2023-02-01T08:00:49;2.37;;;2.10;;
14094;SDS011;18096;48.142;16.290;2023-02-01T08:03:33;1.85;;;1.75;;
14094;SDS011;18096;48.142;16.290;2023-02-01T08:05:59;1.80;;;1.70;;
14094;SDS011;18096;48.142;16.290;2023-02-01T08:08:25;3.50;;;1.70;;
14094;SDS011;18096;48.142;16.290;2023-02-01T08:10:51;1.85;;;1.75;;
14094;SDS011;18096;48.142;16.290;2023-02-01T08:13:21;2.45;;;2.35;;
14094;SDS011;18096;48.142;16.290;2023-02-01T08:15:47;2.80;;;2.00;;
14094;SDS011;18096;48.142;16.290;2023-02-01T08:18:12;2.00;;;1.90;;
14094;SDS011;18096;48.142;16.290;2023-02-01T08:20:41;1.58;;;1.48;;
14094;SDS011;18096;48.142;16.290;2023-02-01T08:23:08;3.00;;;1.98;;
14094;SDS011;18096;48.142;16.290;2023-02-01T08:25:34;1.60;;;1.60;;
14094;SDS011;18096;48.142;16.290;2023-02-01T08:28:01;4.40;;;1.80;;
14094;SDS011;18096;48.142;16.290;2023-02-01T08:30:27;1.80;;;1.70;;
14094;SDS011;18096;48.142;16.290;2023-02-01T08:32:53;2.45;;;1.90;;
14094;SDS011;18096;48.142;16.290;2023-02-01T08:35:18;2.10;;;1.97;;
14094;SDS011;18096;48.142;16.290;2023-02-01T08:37:44;1.80;;;1.70;;
14094;SDS011;18096;48.142;16.290;2023-02-01T08:40:10;2.38;;;2.25;;
14094;SDS011;18096;48.142;16.290;2023-02-01T08:42:36;1.63;;;1.60;;
14094;SDS011;18096;48.142;16.290;2023-02-01T08:45:24;1.63;;;1.52;;
14094;SDS011;18096;48.142;16.290;2023-02-01T08:47:51;2.03;;;1.92;;
14094;SDS011;18096;48.142;16.290;2023-02-01T08:50:18;4.00;;;2.30;;
14094;SDS011;18096;48.142;16.290;2023-02-01T08:52:44;2.13;;;1.73;;
14094;SDS011;18096;48.142;16.290;2023-02-01T08:55:10;2.75;;;1.92;;
14094;SDS011;18096;48.142;16.290;2023-02-01T08:57:37;1.75;;;1.65;;
14094;SDS011;18096;48.142;16.290;2023-02-01T09:00:04;4.20;;;1.90;;
14094;SDS011;18096;48.142;16.290;2023-02-01T09:02:31;2.65;;;1.95;;
14094;SDS011;18096;48.142;16.290;2023-02-01T09:04:56;2.70;;;2.00;;
14094;SDS011;18096;48.142;16.290;2023-02-01T09:07:22;3.08;;;2.30;;
14094;SDS011;18096;48.142;16.290;2023-02-01T09:09:48;3.70;;;2.10;;
14094;SDS011;18096;48.142;16.290;2023-02-01T09:12:14;1.98;;;1.88;;
14094;SDS011;18096;48.142;16.290;2023-02-01T09:14:39;2.87;;;1.67;;
14094;SDS011;18096;48.142;16.290;2023-02-01T09:17:06;2.08;;;1.98;;
14094;SDS011;18096;48.142;16.290;2023-02-01T09:19:31;2.13;;;2.03;;
14094;SDS011;18096;48.142;16.290;2023-02-01T09:21:57;2.40;;;2.20;;
14094;SDS011;18096;48.142;16.290;2023-02-01T09:24:23;1.90;;;1.80;;
14094;SDS011;18096;48.142;16.290;2023-02-01T09:26:49;2.00;;;1.70;;
14094;SDS011;18096;48.142;16.290;2023-02-01T09:29:15;2.80;;;1.60;;
14094;SDS011;18096;48.142;16.290;2023-02-01T09:31:41;2.00;;;1.90;;
14094;SDS011;18096;48.142;16.290;2023-02-01T09:34:07;1.80;;;1.70;;
14094;SDS011;18096;48.142;16.290;2023-02-01T09:36:32;4.80;;;2.05;;
14094;SDS011;18096;48.142;16.290;2023-02-01T09:38:59;1.90;;;1.80;;
14094;SDS011;18096;48.142;16.290;2023-02-01T09:47:03;1.73;;;1.63;;
14094;SDS011;18096;48.142;16.290;2023-02-01T09:49:36;1.75;;;1.50;;
14094;SDS011;18096;48.142;16.290;2023-02-01T09:52:07;1.60;;;1.50;;
14094;SDS011;18096;48.142;16.290;2023-02-01T09:54:52;1.20;;;1.10;;
14094;SDS011;18096;48.142;16.290;2023-02-01T09:57:28;1.33;;;1.30;;
14094;SDS011;18096;48.142;16.290;2023-02-01T10:00:36;1.30;;;1.30;;
14094;SDS011;18096;48.142;16.290;2023-02-01T10:03:04;1.70;;;1.60;;
14094;SDS011;18096;48.142;16.290;2023-02-01T10:08:04;0.90;;;0.90;;
14094;SDS011;18096;48.142;16.290;2023-02-01T10:10:41;2.67;;;1.13;;
14094;SDS011;18096;48.142;16.290;2023-02-01T10:13:54;1.50;;;1.40;;
14094;SDS011;18096;48.142;16.290;2023-02-01T10:21:54;1.20;;;1.20;;
14094;SDS011;18096;48.142;16.290;2023-02-01T10:26:55;1.10;;;1.00;;
14094;SDS011;18096;48.142;16.290;2023-02-01T10:29:35;1.60;;;1.50;;
14094;SDS011;18096;48.142;16.290;2023-02-01T10:32:09;0.90;;;0.90;;
14094;SDS011;18096;48.142;16.290;2023-02-01T10:34:40;1.10;;;1.10;;
14094;SDS011;18096;48.142;16.290;2023-02-01T10:37:29;1.60;;;1.50;;
14094;SDS011;18096;48.142;16.290;2023-02-01T10:39:57;1.02;;;1.02;;
14094;SDS011;18096;48.142;16.290;2023-02-01T10:42:27;1.38;;;1.27;;
14094;SDS011;18096;48.142;16.290;2023-02-01T10:44:55;1.13;;;1.13;;
14094;SDS011;18096;48.142;16.290;2023-02-01T10:47:23;1.20;;;1.20;;
14094;SDS011;18096;48.142;16.290;2023-02-01T10:55:25;1.40;;;1.30;;
14094;SDS011;18096;48.142;16.290;2023-02-01T10:57:57;1.85;;;1.40;;
14094;SDS011;18096;48.142;16.290;2023-02-01T11:00:25;1.60;;;1.50;;
14094;SDS011;18096;48.142;16.290;2023-02-01T11:02:51;1.20;;;1.17;;
14094;SDS011;18096;48.142;16.290;2023-02-01T11:05:18;1.40;;;1.20;;
14094;SDS011;18096;48.142;16.290;2023-02-01T11:07:53;1.58;;;1.48;;
14094;SDS011;18096;48.142;16.290;2023-02-01T11:10:40;1.90;;;1.40;;
14094;SDS011;18096;48.142;16.290;2023-02-01T11:13:16;1.57;;;1.57;;
14094;SDS011;18096;48.142;16.290;2023-02-01T11:15:46;1.38;;;1.27;;
14094;SDS011;18096;48.142;16.290;2023-02-01T11:18:24;1.52;;;1.30;;
14094;SDS011;18096;48.142;16.290;2023-02-01T11:20:52;1.70;;;1.60;;
14094;SDS011;18096;48.142;16.290;2023-02-01T11:23:21;1.30;;;1.30;;
14094;SDS011;18096;48.142;16.290;2023-02-01T11:25:55;2.90;;;1.67;;
14094;SDS011;18096;48.142;16.290;2023-02-01T11:28:26;1.48;;;1.45;;
14094;SDS011;18096;48.142;16.290;2023-02-01T11:30:58;2.75;;;2.15;;
14094;SDS011;18096;48.142;16.290;2023-02-01T11:33:29;1.75;;;1.65;;
14094;SDS011;18096;48.142;16.290;2023-02-01T11:36:00;1.55;;;1.45;;
14094;SDS011;18096;48.142;16.290;2023-02-01T11:38:34;2.70;;;1.30;;
14094;SDS011;18096;48.142;16.290;2023-02-01T11:43:53;2.10;;;2.00;;
14094;SDS011;18096;48.142;16.290;2023-02-01T11:46:22;2.10;;;1.70;;
14094;SDS011;18096;48.142;16.290;2023-02-01T11:48:53;2.30;;;2.10;;
14094;SDS011;18096;48.142;16.290;2023-02-01T11:54:15;2.50;;;1.92;;
14094;SDS011;18096;48.142;16.290;2023-02-01T12:02:59;1.60;;;1.50;;
14094;SDS011;18096;48.142;16.290;2023-02-01T12:22:21;2.67;;;1.77;;
14094;SDS011;18096;48.142;16.290;2023-02-01T12:35:28;1.60;;;1.50;;
14094;SDS011;18096;48.142;16.290;2023-02-01T12:43:11;1.43;;;1.00;;
14094;SDS011;18096;48.142;16.290;2023-02-01T12:45:49;1.50;;;1.30;;
14094;SDS011;18096;48.142;16.290;2023-02-01T12:51:12;2.58;;;1.30;;
14094;SDS011;18096;48.142;16.290;2023-02-01T12:53:48;1.50;;;1.40;;
14094;SDS011;18096;48.142;16.290;2023-02-01T12:56:48;1.40;;;1.30;;
14094;SDS011;18096;48.142;16.290;2023-02-01T13:02:04;0.90;;;0.90;;
14094;SDS011;18096;48.142;16.290;2023-02-01T13:05:21;0.88;;;0.88;;
14094;SDS011;18096;48.142;16.290;2023-02-01T13:13:28;0.80;;;0.80;;
14094;SDS011;18096;48.142;16.290;2023-02-01T13:19:12;1.45;;;0.93;;
14094;SDS011;18096;48.142;16.290;2023-02-01T13:22:05;1.20;;;1.10;;
14094;SDS011;18096;48.142;16.290;2023-02-01T13:24:43;1.70;;;0.90;;
14094;SDS011;18096;48.142;16.290;2023-02-01T13:27:13;1.20;;;1.10;;
14094;SDS011;18096;48.142;16.290;2023-02-01T13:29:44;0.80;;;0.80;;
14094;SDS011;18096;48.142;16.290;2023-02-01T13:35:16;1.00;;;1.00;;
14094;SDS011;18096;48.142;16.290;2023-02-01T13:43:49;1.60;;;1.10;;
14094;SDS011;18096;48.142;16.290;2023-02-01T13:46:17;0.80;;;0.80;;
14094;SDS011;18096;48.142;16.290;2023-02-01T13:49:00;2.55;;;0.80;;
14094;SDS011;18096;48.142;16.290;2023-02-01T13:51:46;7.20;;;1.20;;
14094;SDS011;18096;48.142;16.290;2023-02-01T13:56:53;0.98;;;0.98;;
14094;SDS011;18096;48.142;16.290;2023-02-01T13:59:36;1.08;;;0.98;;
14094;SDS011;18096;48.142;16.290;2023-02-01T14:05:02;4.90;;;1.30;;
14094;SDS011;18096;48.142;16.290;2023-02-01T14:07:28;0.90;;;0.90;;
14094;SDS011;18096;48.142;16.290;2023-02-01T14:09:54;0.90;;;0.80;;
14094;SDS011;18096;48.142;16.290;2023-02-01T14:17:47;3.13;;;0.70;;
14094;SDS011;18096;48.142;16.290;2023-02-01T14:23:08;0.77;;;0.55;;
14094;SDS011;18096;48.142;16.290;2023-02-01T14:25:38;2.10;;;0.50;;
14094;SDS011;18096;48.142;16.290;2023-02-01T14:28:12;0.90;;;0.60;;
14094;SDS011;18096;48.142;16.290;2023-02-01T14:30:51;0.80;;;0.55;;
14094;SDS011;18096;48.142;16.290;2023-02-01T14:33:22;0.57;;;0.57;;
14094;SDS011;18096;48.142;16.290;2023-02-01T14:36:07;0.70;;;0.60;;
14094;SDS011;18096;48.142;16.290;2023-02-01T14:38:37;0.50;;;0.50;;
14094;SDS011;18096;48.142;16.290;2023-02-01T14:49:33;0.50;;;0.50;;
14094;SDS011;18096;48.142;16.290;2023-02-01T14:52:14;0.70;;;0.60;;
14094;SDS011;18096;48.142;16.290;2023-02-01T14:54:42;1.20;;;0.60;;
14094;SDS011;18096;48.142;16.290;2023-02-01T14:57:16;0.60;;;0.60;;
14094;SDS011;18096;48.142;16.290;2023-02-01T14:59:45;0.70;;;0.70;;
14094;SDS011;18096;48.142;16.290;2023-02-01T15:02:17;1.27;;;0.70;;
14094;SDS011;18096;48.142;16.290;2023-02-01T15:04:53;0.80;;;0.80;;
14094;SDS011;18096;48.142;16.290;2023-02-01T15:07:21;0.82;;;0.82;;
14094;SDS011;18096;48.142;16.290;2023-02-01T15:09:49;1.67;;;1.58;;
14094;SDS011;18096;48.142;16.290;2023-02-01T15:12:17;1.40;;;1.30;;
14094;SDS011;18096;48.142;16.290;2023-02-01T15:17:57;2.00;;;1.30;;
14094;SDS011;18096;48.142;16.290;2023-02-01T15:20:28;1.23;;;1.13;;
14094;SDS011;18096;48.142;16.290;2023-02-01T15:22:57;2.70;;;1.63;;
14094;SDS011;18096;48.142;16.290;2023-02-01T15:25:28;1.00;;;1.00;;
14094;SDS011;18096;48.142;16.290;2023-02-01T15:27:56;1.90;;;1.40;;
14094;SDS011;18096;48.142;16.290;2023-02-01T15:30:24;1.60;;;1.50;;
14094;SDS011;18096;48.142;16.290;2023-02-01T15:32:58;1.60;;;1.10;;
14094;SDS011;18096;48.142;16.290;2023-02-01T15:35:48;1.50;;;1.10;;
14094;SDS011;18096;48.142;16.290;2023-02-01T15:41:09;3.40;;;1.10;;
14094;SDS011;18096;48.142;16.290;2023-02-01T15:43:42;2.20;;;1.20;;
14094;SDS011;18096;48.142;16.290;2023-02-01T15:46:31;1.35;;;1.15;;
14094;SDS011;18096;48.142;16.290;2023-02-01T15:49:01;2.70;;;1.30;;
14094;SDS011;18096;48.142;16.290;2023-02-01T15:51:29;1.80;;;1.20;;
14094;SDS011;18096;48.142;16.290;2023-02-01T15:56:26;1.27;;;1.20;;
14094;SDS011;18096;48.142;16.290;2023-02-01T15:58:58;1.00;;;1.00;;
14094;SDS011;18096;48.142;16.290;2023-02-01T16:01:26;1.27;;;1.17;;
14094;SDS011;18096;48.142;16.290;2023-02-01T16:04:13;1.53;;;1.33;;
14094;SDS011;18096;48.142;16.290;2023-02-01T16:06:56;1.60;;;1.30;;
14094;SDS011;18096;48.142;16.290;2023-02-01T16:09:32;3.95;;;1.25;;
14094;SDS011;18096;48.142;16.290;2023-02-01T16:14:59;1.67;;;1.27;;
14094;SDS011;18096;48.142;16.290;2023-02-01T16:17:26;1.90;;;1.53;;
14094;SDS011;18096;48.142;16.290;2023-02-01T16:19:51;3.40;;;1.30;;
14094;SDS011;18096;48.142;16.290;2023-02-01T16:22:17;1.30;;;1.20;;
14094;SDS011;18096;48.142;16.290;2023-02-01T16:24:43;4.10;;;1.17;;
14094;SDS011;18096;48.142;16.290;2023-02-01T16:27:09;2.58;;;1.60;;
14094;SDS011;18096;48.142;16.290;2023-02-01T16:29:35;2.90;;;1.25;;
14094;SDS011;18096;48.142;16.290;2023-02-01T16:32:00;1.55;;;1.45;;
14094;SDS011;18096;48.142;16.290;2023-02-01T16:34:26;2.17;;;1.50;;
14094;SDS011;18096;48.142;16.290;2023-02-01T16:36:52;1.70;;;1.60;;
14094;SDS011;18096;48.142;16.290;2023-02-01T16:39:22;2.03;;;1.60;;
14094;SDS011;18096;48.142;16.290;2023-02-01T16:41:48;2.00;;;1.50;;
14094;SDS011;18096;48.142;16.290;2023-02-01T16:44:14;2.00;;;1.10;;
14094;SDS011;18096;48.142;16.290;2023-02-01T16:46:42;4.35;;;1.65;;
14094;SDS011;18096;48.142;16.290;2023-02-01T16:49:28;5.50;;;1.92;;
14094;SDS011;18096;48.142;16.290;2023-02-01T16:51:55;2.08;;;1.98;;
14094;SDS011;18096;48.142;16.290;2023-02-01T16:54:23;1.40;;;1.30;;
14094;SDS011;18096;48.142;16.290;2023-02-01T16:56:49;1.93;;;1.83;;
14094;SDS011;18096;48.142;16.290;2023-02-01T16:59:15;1.70;;;1.60;;
14094;SDS011;18096;48.142;16.290;2023-02-01T17:01:41;1.75;;;1.65;;
14094;SDS011;18096;48.142;16.290;2023-02-01T17:04:08;2.08;;;1.98;;
14094;SDS011;18096;48.142;16.290;2023-02-01T17:06:35;2.00;;;1.90;;
14094;SDS011;18096;48.142;16.290;2023-02-01T17:09:02;4.82;;;1.73;;
14094;SDS011;18096;48.142;16.290;2023-02-01T17:11:29;3.60;;;2.10;;
14094;SDS011;18096;48.142;16.290;2023-02-01T17:16:41;4.03;;;2.17;;
14094;SDS011;18096;48.142;16.290;2023-02-01T17:19:14;4.00;;;2.60;;
14094;SDS011;18096;48.142;16.290;2023-02-01T17:21:46;2.80;;;2.10;;
14094;SDS011;18096;48.142;16.290;2023-02-01T17:24:23;5.72;;;2.10;;
14094;SDS011;18096;48.142;16.290;2023-02-01T17:26:53;3.58;;;2.15;;
14094;SDS011;18096;48.142;16.290;2023-02-01T17:29:19;1.80;;;1.70;;
14094;SDS011;18096;48.142;16.290;2023-02-01T17:31:49;1.93;;;1.73;;
14094;SDS011;18096;48.142;16.290;2023-02-01T17:34:18;3.05;;;1.80;;